Time;durP1;ratioP1;P1;durP2;ratioP2;P2;SDS_P1;SDS_P2;PMS_P1;PMS_P2;Temp;Humidity;BMP_temperature;BMP_pressure;BME280_temperature;BME280_humidity;BME280_pressure;Samples;Min_cycle;Max_cycle;Signal;HPM_P1;HPM_P2
2023/05/08 00:01:38;;;;;;;8.10;7.35;;;13.10;93.80;;;;;;5094089;28;20195;-73
2023/05/08 00:04:03;;;;;;;8.40;7.75;;;13.10;94.00;;;;;;5094001;28;20173;-73
2023/05/08 00:06:29;;;;;;;8.38;7.78;;;12.90;94.50;;;;;;5075470;28;20232;-73
2023/05/08 00:08:55;;;;;;;8.57;7.88;;;12.90;94.50;;;;;;5077019;28;20226;-73
2023/05/08 00:11:21;;;;;;;8.27;7.57;;;12.90;94.70;;;;;;5077085;28;20549;-73
2023/05/08 00:13:46;;;;;;;8.40;7.70;;;12.80;95.00;;;;;;5077669;28;20173;-73
2023/05/08 00:16:12;;;;;;;7.95;7.25;;;12.80;94.70;;;;;;5077763;28;20295;-73
2023/05/08 00:18:38;;;;;;;8.40;7.70;;;12.90;94.70;;;;;;5077114;28;20177;-73
2023/05/08 00:21:04;;;;;;;8.38;7.57;;;12.90;94.50;;;;;;5077520;28;20185;-74
2023/05/08 00:23:30;;;;;;;8.05;7.45;;;12.80;94.70;;;;;;5077845;28;20184;-74
2023/05/08 00:25:56;;;;;;;8.90;8.20;;;12.80;94.80;;;;;;5077355;28;20212;-74
2023/05/08 00:28:21;;;;;;;8.50;7.80;;;12.70;94.80;;;;;;5077458;28;20273;-74
2023/05/08 00:30:47;;;;;;;8.35;7.65;;;12.70;94.90;;;;;;5095244;28;20173;-74
2023/05/08 00:33:13;;;;;;;8.45;7.80;;;12.70;95.00;;;;;;5077485;28;20573;-74
2023/05/08 00:35:41;;;;;;;8.35;7.63;;;12.60;95.00;;;;;;5095533;28;20735;-74
2023/05/08 00:38:06;;;;;;;8.63;7.75;;;12.70;95.10;;;;;;5077888;28;20181;-74
2023/05/08 00:40:32;;;;;;;8.80;8.10;;;12.70;95.00;;;;;;5077445;28;20595;-74
2023/05/08 00:42:57;;;;;;;8.88;7.82;;;12.70;94.90;;;;;;5077190;28;20273;-74
2023/05/08 00:45:23;;;;;;;8.82;8.13;;;12.60;95.10;;;;;;5077059;28;20204;-74
2023/05/08 00:47:50;;;;;;;9.45;7.88;;;12.60;95.20;;;;;;5076596;28;20222;-74
2023/05/08 00:50:16;;;;;;;8.60;7.90;;;12.70;95.10;;;;;;5076830;28;20209;-74
2023/05/08 00:52:42;;;;;;;8.20;7.60;;;12.60;95.40;;;;;;5076471;28;20181;-74
2023/05/08 00:55:08;;;;;;;9.00;8.15;;;12.60;95.10;;;;;;5077240;28;20187;-74
2023/05/08 00:57:34;;;;;;;8.38;7.68;;;12.50;95.10;;;;;;5076353;28;20193;-74
2023/05/08 01:00:03;;;;;;;8.50;7.80;;;12.50;95.50;;;;;;5076816;28;20550;-74
2023/05/08 01:29:14;;;;;;;9.13;8.23;;;12.70;95.10;;;;;;4881187;29;20339;-73
2023/05/08 02:56:36;;;;;;;8.02;7.32;;;11.90;95.90;;;;;;4888630;24;20252;-83
2023/05/08 02:59:21;;;;;;;7.60;7.00;;;11.70;96.10;;;;;;4829121;29;20246;-83
2023/05/08 03:01:58;;;;;;;7.82;7.15;;;11.70;96.10;;;;;;4828569;29;20265;-84
2023/05/08 03:04:30;;;;;;;9.73;7.60;;;11.70;96.30;;;;;;4828197;29;20261;-84
2023/05/08 03:06:57;;;;;;;7.80;7.10;;;11.70;96.20;;;;;;4829128;29;20212;-84
2023/05/08 03:09:25;;;;;;;7.93;7.22;;;11.70;96.20;;;;;;4828342;29;20206;-84
2023/05/08 03:12:02;;;;;;;8.27;7.57;;;11.70;96.20;;;;;;4829012;29;20247;-84
2023/05/08 03:14:31;;;;;;;8.15;7.45;;;11.70;96.30;;;;;;4829002;29;20284;-84
2023/05/08 03:16:59;;;;;;;8.88;7.97;;;11.60;96.50;;;;;;4828520;29;20682;-84
2023/05/08 03:19:37;;;;;;;8.10;7.07;;;11.60;96.60;;;;;;4828324;29;20185;-84
2023/05/08 03:22:05;;;;;;;8.70;7.80;;;11.50;96.70;;;;;;4828785;29;20170;-84
2023/05/08 03:24:35;;;;;;;8.10;7.40;;;11.50;96.70;;;;;;4829084;29;20225;-84
2023/05/08 03:27:02;;;;;;;8.43;7.63;;;11.50;96.80;;;;;;4829881;29;20657;-84
2023/05/08 03:29:29;;;;;;;8.60;7.80;;;11.50;96.80;;;;;;4828276;29;20276;-84
2023/05/08 03:31:57;;;;;;;7.80;7.15;;;11.50;96.70;;;;;;4828538;29;20215;-84
2023/05/08 03:34:35;;;;;;;;;;;;;;;;;;;;;
2023/05/08 03:37:01;;;;;;;7.55;6.95;;;11.60;96.60;;;;;;4846280;29;20180;-83
2023/05/08 03:39:26;;;;;;;8.18;7.38;;;11.50;96.50;;;;;;4829150;29;20280;-83
2023/05/08 03:41:54;;;;;;;7.90;7.30;;;11.40;96.70;;;;;;4828796;29;20189;-83
2023/05/08 03:44:20;;;;;;;8.18;7.40;;;11.40;96.70;;;;;;4828244;29;20211;-83
2023/05/08 03:46:49;;;;;;;7.47;6.88;;;11.30;96.80;;;;;;4828137;29;20217;-83
2023/05/08 03:49:17;;;;;;;8.38;7.65;;;11.30;96.90;;;;;;4828308;29;20234;-83
2023/05/08 03:51:44;;;;;;;7.60;6.95;;;11.30;96.70;;;;;;4828734;29;20182;-83
2023/05/08 03:54:09;;;;;;;7.95;6.85;;;11.30;96.80;;;;;;4828275;29;20205;-83
2023/05/08 03:56:35;;;;;;;8.43;7.63;;;11.30;96.80;;;;;;4829703;29;20201;-83
2023/05/08 03:59:20;;;;;;;8.60;7.90;;;11.40;96.80;;;;;;4828449;29;20197;-83
2023/05/08 04:02:08;;;;;;;10.32;8.00;;;11.30;97.00;;;;;;4844266;29;20178;-83
2023/05/08 04:04:40;;;;;;;8.63;7.82;;;11.10;97.50;;;;;;4828022;29;20212;-83
2023/05/08 04:07:23;;;;;;;8.23;7.60;;;10.90;97.90;;;;;;4844216;29;20220;-83
2023/05/08 04:10:12;;;;;;;8.85;8.07;;;11.00;98.10;;;;;;4827327;29;20641;-83
2023/05/08 04:12:39;;;;;;;7.82;7.13;;;11.10;98.00;;;;;;4827643;29;20277;-83
2023/05/08 04:15:14;;;;;;;8.82;8.02;;;11.20;97.80;;;;;;4827308;29;20277;-83
2023/05/08 04:17:54;;;;;;;7.57;6.75;;;11.30;97.30;;;;;;4827547;29;20212;-83
2023/05/08 04:20:23;;;;;;;7.93;7.22;;;11.30;97.10;;;;;;4827771;29;20237;-83
2023/05/08 04:22:51;;;;;;;7.80;7.00;;;11.40;97.10;;;;;;4843844;29;20202;-84
2023/05/08 04:25:18;;;;;;;7.78;7.07;;;11.60;97.40;;;;;;4828583;29;20213;-84
2023/05/08 04:27:44;;;;;;;8.20;7.57;;;11.60;96.80;;;;;;4844261;29;20231;-84
2023/05/08 04:30:10;;;;;;;8.35;6.88;;;11.60;96.60;;;;;;4827661;29;20224;-84
2023/05/08 04:32:40;;;;;;;7.40;6.80;;;11.70;96.30;;;;;;4827889;29;20182;-84
2023/05/08 04:35:06;;;;;;;7.53;6.72;;;11.70;96.30;;;;;;4827356;29;20213;-83
2023/05/08 04:37:32;;;;;;;9.50;6.60;;;11.70;96.20;;;;;;4828294;29;20554;-83
2023/05/08 04:39:59;;;;;;;7.53;6.65;;;11.70;96.10;;;;;;4827390;29;20190;-83
2023/05/08 04:42:25;;;;;;;7.43;6.78;;;11.80;96.10;;;;;;4827331;29;20185;-83
2023/05/08 04:44:54;;;;;;;7.60;6.90;;;11.80;96.10;;;;;;4827135;29;20213;-83
2023/05/08 04:47:20;;;;;;;7.55;6.63;;;11.90;95.90;;;;;;4827626;29;20182;-83
2023/05/08 04:49:45;;;;;;;7.28;6.28;;;11.90;95.50;;;;;;4827825;29;20237;-84
2023/05/08 04:52:11;;;;;;;8.05;6.65;;;12.00;95.40;;;;;;4847370;29;20182;-83
2023/05/08 04:54:40;;;;;;;6.30;5.80;;;12.10;95.40;;;;;;4832034;29;20204;-84
2023/05/08 04:57:07;;;;;;;8.45;6.30;;;12.10;95.50;;;;;;4832752;29;20197;-83
2023/05/08 04:59:32;;;;;;;7.28;6.57;;;12.20;95.20;;;;;;4832856;29;20193;-85
2023/05/08 05:02:07;;;;;;;7.50;6.88;;;12.30;94.90;;;;;;4834478;29;20186;-84
2023/05/08 05:04:34;;;;;;;9.60;7.25;;;12.10;95.20;;;;;;4831423;29;20296;-86
2023/05/08 05:07:00;;;;;;;6.72;6.05;;;12.20;95.30;;;;;;4833364;29;20333;-85
2023/05/08 05:09:26;;;;;;;6.80;6.10;;;12.20;95.20;;;;;;4846804;29;20182;-85
2023/05/08 05:11:51;;;;;;;7.20;6.47;;;12.30;94.80;;;;;;4830871;29;20323;-84
2023/05/08 05:14:17;;;;;;;6.75;6.25;;;12.40;94.90;;;;;;4830090;29;20197;-84
2023/05/08 05:16:43;;;;;;;6.90;6.30;;;12.40;94.30;;;;;;4830965;29;20181;-85
2023/05/08 05:19:08;;;;;;;7.53;6.15;;;12.60;94.00;;;;;;4830576;29;20218;-85
2023/05/08 05:21:36;;;;;;;8.75;6.30;;;12.40;94.00;;;;;;4830678;29;20246;-84
2023/05/08 05:24:02;;;;;;;7.65;6.10;;;12.20;94.00;;;;;;4830656;29;20210;-85
2023/05/08 05:26:28;;;;;;;7.25;6.50;;;12.10;94.30;;;;;;4829373;29;20228;-85
2023/05/08 05:28:54;;;;;;;6.38;5.88;;;12.10;94.10;;;;;;4829635;29;20220;-85
2023/05/08 05:31:19;;;;;;;7.05;6.15;;;12.00;94.10;;;;;;4829395;29;20229;-85
2023/05/08 05:33:45;;;;;;;7.43;6.68;;;12.00;94.10;;;;;;4829953;29;20612;-85
2023/05/08 05:36:11;;;;;;;7.20;6.60;;;12.20;94.30;;;;;;4829278;29;20186;-85
2023/05/08 05:38:36;;;;;;;8.15;6.47;;;12.20;93.90;;;;;;4829783;29;20221;-85
2023/05/08 05:41:02;;;;;;;14.48;6.60;;;12.30;93.70;;;;;;4829422;29;20322;-85
2023/05/08 05:43:28;;;;;;;11.65;6.07;;;12.30;93.80;;;;;;4829449;29;20235;-86
2023/05/08 05:45:56;;;;;;;8.93;6.10;;;12.50;94.00;;;;;;4828920;29;20224;-86
2023/05/08 05:48:22;;;;;;;15.80;6.05;;;12.80;93.70;;;;;;4860072;29;20185;-83
2023/05/08 05:50:47;;;;;;;6.47;5.90;;;12.80;93.00;;;;;;4860303;29;20692;-82
2023/05/08 05:53:14;;;;;;;5.85;5.35;;;12.70;93.10;;;;;;4861195;29;20181;-84
2023/05/08 05:56:36;;;;;;;7.20;6.10;;;12.60;93.30;;;;;;4846512;29;20290;-83
2023/05/08 05:59:01;;;;;;;6.57;5.95;;;12.60;93.10;;;;;;4826600;29;20206;-82
2023/05/08 06:01:27;;;;;;;6.68;6.18;;;12.70;93.10;;;;;;4829165;29;20238;-82
2023/05/08 06:03:53;;;;;;;6.57;5.97;;;12.80;93.00;;;;;;4828463;29;20288;-82
2023/05/08 06:06:19;;;;;;;6.93;5.72;;;12.80;93.10;;;;;;4852123;29;20255;-82
2023/05/08 06:08:45;;;;;;;7.03;6.20;;;12.80;92.50;;;;;;4829370;29;20198;-82
2023/05/08 06:11:11;;;;;;;6.68;5.80;;;12.80;92.90;;;;;;4830187;29;20181;-83
2023/05/08 06:13:39;;;;;;;6.97;6.30;;;13.10;92.20;;;;;;4829744;29;20351;-83
2023/05/08 06:16:06;;;;;;;6.90;6.30;;;13.20;91.80;;;;;;4829680;29;20186;-82
2023/05/08 06:18:32;;;;;;;7.63;5.68;;;13.30;92.20;;;;;;4845983;29;20204;-82
2023/05/08 06:20:58;;;;;;;6.00;5.50;;;13.50;91.40;;;;;;4829553;29;20185;-82
2023/05/08 06:23:25;;;;;;;6.35;5.75;;;13.60;91.30;;;;;;4830351;29;20210;-82
2023/05/08 06:25:51;;;;;;;7.25;5.95;;;13.70;91.50;;;;;;4830444;29;20290;-82
2023/05/08 06:28:17;;;;;;;6.05;5.57;;;13.90;90.90;;;;;;4829711;29;20657;-82
2023/05/08 06:30:43;;;;;;;6.30;5.47;;;14.00;91.00;;;;;;4830144;29;20181;-82
2023/05/08 06:33:10;;;;;;;5.93;5.47;;;14.00;90.60;;;;;;4829719;29;20188;-82
2023/05/08 06:35:36;;;;;;;5.95;5.35;;;14.10;90.30;;;;;;4829145;29;20182;-83
2023/05/08 06:38:02;;;;;;;5.70;5.18;;;14.30;89.90;;;;;;4829726;29;20190;-82
2023/05/08 06:40:27;;;;;;;5.70;5.18;;;14.40;90.50;;;;;;4829755;29;20246;-82
2023/05/08 06:42:53;;;;;;;5.47;5.00;;;15.00;89.90;;;;;;4830235;29;20200;-82
2023/05/08 06:45:19;;;;;;;6.30;5.50;;;14.90;88.60;;;;;;4829570;29;20218;-82
2023/05/08 06:47:44;;;;;;;7.47;5.07;;;15.20;88.40;;;;;;4830202;29;20192;-83
2023/05/08 06:50:10;;;;;;;7.47;5.20;;;15.30;88.00;;;;;;4829971;29;20561;-83
2023/05/08 06:52:36;;;;;;;6.40;5.18;;;15.50;87.50;;;;;;4829715;29;20188;-82
2023/05/08 06:55:01;;;;;;;9.50;5.55;;;15.90;85.30;;;;;;4829628;29;20205;-84
2023/05/08 06:57:29;;;;;;;10.27;5.22;;;15.70;85.60;;;;;;4829586;29;20193;-83
2023/05/08 06:59:55;;;;;;;8.57;5.43;;;15.70;85.80;;;;;;4845743;29;20217;-83
2023/05/08 07:02:20;;;;;;;7.50;5.20;;;15.70;85.20;;;;;;4829461;29;20552;-83
2023/05/08 07:04:46;;;;;;;5.70;5.20;;;15.60;85.30;;;;;;4829562;29;20197;-83
2023/05/08 07:07:13;;;;;;;5.75;5.13;;;15.20;86.00;;;;;;4829361;29;20308;-83
2023/05/08 07:09:38;;;;;;;5.70;5.22;;;15.20;86.30;;;;;;4829501;29;20173;-83
2023/05/08 07:12:04;;;;;;;5.22;4.82;;;15.30;84.80;;;;;;4845629;29;20238;-82
2023/05/08 07:14:30;;;;;;;5.80;5.28;;;15.10;84.90;;;;;;4828625;29;20580;-83
2023/05/08 07:16:57;;;;;;;5.80;5.40;;;15.40;86.10;;;;;;4828899;29;20185;-83
2023/05/08 07:19:23;;;;;;;5.18;4.78;;;15.80;84.90;;;;;;4830442;29;20189;-82
2023/05/08 07:21:49;;;;;;;6.10;5.50;;;16.00;85.50;;;;;;4830574;29;20253;-82
2023/05/08 07:24:15;;;;;;;7.63;5.47;;;15.80;82.50;;;;;;4846798;29;20291;-82
2023/05/08 07:26:40;;;;;;;5.93;5.43;;;16.00;84.10;;;;;;4846510;29;20202;-82
2023/05/08 07:29:07;;;;;;;7.68;4.80;;;16.40;82.90;;;;;;4830140;29;20544;-82
2023/05/08 07:31:32;;;;;;;5.65;5.25;;;16.70;81.90;;;;;;4830149;29;20277;-82
2023/05/08 07:33:58;;;;;;;6.25;5.70;;;17.20;79.50;;;;;;4830083;29;20247;-82
2023/05/08 07:36:23;;;;;;;5.88;4.97;;;17.30;79.00;;;;;;4830379;29;20276;-82
2023/05/08 07:38:49;;;;;;;5.68;5.18;;;17.20;78.60;;;;;;4830517;29;20253;-82
2023/05/08 07:41:15;;;;;;;5.97;5.18;;;17.40;78.60;;;;;;4830012;29;20182;-82
2023/05/08 07:43:42;;;;;;;5.43;5.03;;;17.20;78.20;;;;;;4829149;29;20669;-82
2023/05/08 07:46:14;;;;;;;5.95;5.45;;;17.00;77.30;;;;;;4829602;29;20209;-82
2023/05/08 07:48:40;;;;;;;5.60;5.20;;;17.40;77.80;;;;;;4829683;29;20177;-82
2023/05/08 07:51:05;;;;;;;5.65;5.25;;;17.50;78.20;;;;;;4830029;29;20233;-82
2023/05/08 07:53:31;;;;;;;9.65;5.40;;;17.60;77.40;;;;;;4829747;29;20201;-82
2023/05/08 07:55:56;;;;;;;5.72;5.32;;;17.50;77.20;;;;;;4830533;29;20196;-82
2023/05/08 07:58:22;;;;;;;6.40;5.80;;;17.30;77.80;;;;;;4829788;29;20254;-82
2023/05/08 08:00:48;;;;;;;5.63;5.13;;;17.30;76.50;;;;;;4846040;29;20189;-82
2023/05/08 08:03:13;;;;;;;5.55;5.07;;;17.30;77.80;;;;;;4829741;29;20185;-82
2023/05/08 08:05:39;;;;;;;6.13;5.55;;;17.60;77.30;;;;;;4829732;29;20696;-82
2023/05/08 08:08:04;;;;;;;5.68;5.22;;;17.60;76.80;;;;;;4829295;29;20259;-82
2023/05/08 08:10:30;;;;;;;7.43;5.85;;;17.60;76.00;;;;;;4828477;29;20709;-82
2023/05/08 08:12:56;;;;;;;5.85;5.35;;;17.60;75.10;;;;;;4829899;29;20216;-82
2023/05/08 08:15:21;;;;;;;6.22;5.63;;;17.40;78.30;;;;;;4829427;29;20216;-82
2023/05/08 08:17:47;;;;;;;6.45;5.18;;;17.60;78.10;;;;;;4829676;29;20189;-82
2023/05/08 08:20:13;;;;;;;7.63;5.88;;;17.40;78.10;;;;;;4828679;29;20277;-82
2023/05/08 08:22:39;;;;;;;7.18;5.85;;;17.30;78.20;;;;;;4844283;29;20186;-82
2023/05/08 08:25:05;;;;;;;6.53;5.53;;;17.20;79.10;;;;;;4828670;29;20216;-82
2023/05/08 08:27:31;;;;;;;6.10;5.20;;;17.30;78.30;;;;;;4828091;29;20181;-82
2023/05/08 08:29:56;;;;;;;6.07;5.65;;;17.30;79.20;;;;;;4829386;29;20173;-82
2023/05/08 08:32:22;;;;;;;6.50;5.15;;;17.70;77.60;;;;;;4829751;29;20201;-82
2023/05/08 08:34:48;;;;;;;6.05;5.45;;;17.70;77.50;;;;;;4846404;29;20252;-82
2023/05/08 08:37:14;;;;;;;5.78;5.20;;;18.00;77.40;;;;;;4829780;29;20244;-82
2023/05/08 08:39:40;;;;;;;5.50;5.10;;;18.10;76.30;;;;;;4830084;29;20234;-82
2023/05/08 08:42:06;;;;;;;6.10;5.60;;;18.20;76.20;;;;;;4829602;29;20192;-82
2023/05/08 08:44:32;;;;;;;5.97;5.47;;;17.90;75.60;;;;;;4845714;29;20695;-82
2023/05/08 08:46:59;;;;;;;6.70;5.70;;;17.60;77.10;;;;;;4829524;29;20209;-82
2023/05/08 08:49:30;;;;;;;5.78;5.18;;;17.70;77.10;;;;;;4829356;29;20186;-82
2023/05/08 08:52:02;;;;;;;6.40;5.90;;;17.90;78.20;;;;;;4845750;29;20253;-82
2023/05/08 08:54:32;;;;;;;11.05;6.47;;;17.60;77.10;;;;;;4829180;29;20198;-82
2023/05/08 08:57:04;;;;;;;6.97;5.90;;;17.40;76.80;;;;;;4829151;29;20185;-82
2023/05/08 08:59:31;;;;;;;7.80;5.35;;;17.30;78.30;;;;;;4828923;29;20217;-82
2023/05/08 09:02:05;;;;;;;7.38;5.85;;;17.40;78.10;;;;;;4829604;29;20559;-83
2023/05/08 09:04:31;;;;;;;6.68;5.57;;;17.50;78.40;;;;;;4829169;29;20229;-82
2023/05/08 09:06:57;;;;;;;6.50;5.93;;;17.70;79.00;;;;;;4829426;29;20277;-82
2023/05/08 09:09:23;;;;;;;5.90;5.47;;;17.50;75.90;;;;;;4828915;29;20181;-82
2023/05/08 09:11:51;;;;;;;5.70;5.30;;;17.50;79.10;;;;;;4829068;29;20231;-82
2023/05/08 09:14:16;;;;;;;6.95;5.40;;;17.80;78.70;;;;;;4829438;29;20205;-82
2023/05/08 09:16:42;;;;;;;8.85;5.78;;;18.00;77.10;;;;;;4829294;29;20249;-82
2023/05/08 09:19:08;;;;;;;5.82;5.32;;;18.20;76.80;;;;;;4829317;29;20222;-82
2023/05/08 09:21:34;;;;;;;6.30;5.65;;;18.20;76.20;;;;;;4829137;29;20190;-82
2023/05/08 09:24:04;;;;;;;8.80;5.75;;;18.30;76.00;;;;;;4828947;29;20213;-82
2023/05/08 09:26:35;;;;;;;7.00;5.88;;;18.40;75.70;;;;;;4829438;29;20205;-82
2023/05/08 09:29:21;;;;;;;14.48;5.78;;;18.40;76.10;;;;;;4829952;29;20178;-82
2023/05/08 09:31:49;;;;;;;8.60;5.65;;;18.00;77.30;;;;;;4829343;29;20250;-82
2023/05/08 09:34:29;;;;;;;6.93;6.22;;;18.00;76.80;;;;;;4829667;29;20214;-82
2023/05/08 09:37:04;;;;;;;7.07;6.50;;;17.70;77.00;;;;;;4830369;29;20185;-82
2023/05/08 09:39:30;;;;;;;11.30;6.15;;;17.50;77.50;;;;;;4831873;29;20177;-82
2023/05/08 09:42:00;;;;;;;16.50;6.30;;;17.60;78.50;;;;;;4832654;29;20192;-82
2023/05/08 09:44:27;;;;;;;11.05;6.00;;;17.80;78.40;;;;;;4832337;29;20213;-82
2023/05/08 09:47:12;;;;;;;7.03;6.43;;;17.90;78.00;;;;;;4829272;29;20205;-84
2023/05/08 09:49:39;;;;;;;14.05;6.88;;;17.70;77.10;;;;;;4829097;29;20184;-85
2023/05/08 09:52:07;;;;;;;7.13;6.53;;;17.70;77.10;;;;;;4828675;29;20189;-84
2023/05/08 09:54:32;;;;;;;6.82;6.18;;;17.40;77.80;;;;;;4828625;29;20262;-84
2023/05/08 09:56:58;;;;;;;6.05;5.57;;;17.60;79.10;;;;;;4828867;29;20193;-84
2023/05/08 09:59:27;;;;;;;6.80;6.10;;;17.50;79.00;;;;;;4828692;29;20301;-84
2023/05/08 10:01:53;;;;;;;8.85;6.28;;;17.60;79.10;;;;;;4829922;29;20653;-84
2023/05/08 10:04:36;;;;;;;6.63;6.13;;;17.40;80.90;;;;;;4829014;29;20205;-84
2023/05/08 10:07:02;;;;;;;6.30;5.70;;;17.40;80.20;;;;;;4828580;29;20202;-85
2023/05/08 10:09:27;;;;;;;6.65;6.05;;;17.50;79.30;;;;;;4828976;29;20185;-85
2023/05/08 10:11:54;;;;;;;7.07;6.38;;;17.40;78.20;;;;;;4829666;29;20208;-85
2023/05/08 10:14:21;;;;;;;6.78;6.07;;;17.10;79.40;;;;;;4829086;29;20201;-84
2023/05/08 10:16:50;;;;;;;8.20;5.95;;;17.10;80.80;;;;;;4828568;29;20224;-84
2023/05/08 10:19:18;;;;;;;9.20;6.50;;;17.30;80.40;;;;;;4828757;29;20717;-84
2023/05/08 10:21:49;;;;;;;8.55;6.50;;;17.40;80.20;;;;;;4828503;29;20676;-84
2023/05/08 10:24:18;;;;;;;7.47;6.55;;;17.50;80.30;;;;;;4828621;29;20213;-84
2023/05/08 10:27:04;;;;;;;7.40;6.32;;;17.60;79.70;;;;;;4828196;29;20205;-84
2023/05/08 10:29:52;;;;;;;6.72;6.13;;;17.80;78.70;;;;;;4828340;29;20177;-84
2023/05/08 10:32:19;;;;;;;6.53;6.03;;;18.00;78.40;;;;;;4828173;29;20181;-84
2023/05/08 10:34:48;;;;;;;7.18;6.47;;;18.40;78.40;;;;;;4828271;29;20288;-84
2023/05/08 10:37:15;;;;;;;7.55;6.85;;;18.20;76.80;;;;;;4828583;29;20280;-84
2023/05/08 10:39:43;;;;;;;6.78;6.25;;;17.80;77.30;;;;;;4845003;29;20189;-84
2023/05/08 10:42:09;;;;;;;7.95;7.15;;;17.80;77.90;;;;;;4828401;29;20194;-84
2023/05/08 10:44:35;;;;;;;7.10;6.50;;;18.00;77.60;;;;;;4828012;29;20221;-84
2023/05/08 10:47:15;;;;;;;7.40;6.75;;;18.20;77.90;;;;;;4828859;29;20236;-84
2023/05/08 10:50:09;;;;;;;7.45;6.75;;;18.40;76.20;;;;;;4828216;29;20177;-84
2023/05/08 10:52:49;;;;;;;7.18;6.57;;;18.40;76.20;;;;;;4828874;29;20617;-84
2023/05/08 10:55:39;;;;;;;8.80;6.60;;;18.60;76.10;;;;;;4828170;29;20206;-84
2023/05/08 10:58:13;;;;;;;7.70;6.25;;;18.70;74.70;;;;;;4828332;29;20201;-84
2023/05/08 11:01:08;;;;;;;11.32;5.75;;;19.00;75.20;;;;;;4827872;29;20264;-84
2023/05/08 11:03:41;;;;;;;12.68;6.05;;;19.30;76.00;;;;;;4828637;29;20201;-84
2023/05/08 11:06:07;;;;;;;7.00;6.38;;;19.60;75.40;;;;;;4828269;29;20209;-84
2023/05/08 11:08:41;;;;;;;5.80;5.32;;;19.90;73.70;;;;;;4828067;29;20181;-84
2023/05/08 11:11:32;;;;;;;6.55;6.03;;;19.80;73.40;;;;;;4828373;29;20626;-84
2023/05/08 11:14:07;;;;;;;8.25;6.18;;;20.00;74.90;;;;;;4828222;29;20221;-84
2023/05/08 11:16:55;;;;;;;6.97;6.38;;;20.10;73.50;;;;;;4827902;29;20189;-84
2023/05/08 11:19:25;;;;;;;9.63;6.03;;;20.20;72.60;;;;;;4828326;29;20188;-84
2023/05/08 11:22:14;;;;;;;6.85;6.20;;;20.10;74.30;;;;;;4827446;29;20257;-84
2023/05/08 11:24:48;;;;;;;7.55;6.10;;;20.30;74.60;;;;;;4827407;29;20209;-84
2023/05/08 11:27:14;;;;;;;6.43;5.72;;;20.40;74.80;;;;;;4828340;29;20616;-84
2023/05/08 11:29:40;;;;;;;7.68;5.68;;;20.40;74.00;;;;;;4827983;29;20192;-84
2023/05/08 11:32:06;;;;;;;7.20;5.60;;;20.40;74.30;;;;;;4827657;29;20276;-84
2023/05/08 11:34:40;;;;;;;6.93;6.22;;;20.50;75.00;;;;;;4827347;29;20206;-84
2023/05/08 11:37:20;;;;;;;6.72;6.13;;;20.40;74.00;;;;;;4827856;29;20191;-84
2023/05/08 11:39:46;;;;;;;7.40;6.28;;;20.40;75.40;;;;;;4827498;29;20281;-84
2023/05/08 11:42:24;;;;;;;9.02;6.32;;;20.30;75.50;;;;;;4827179;29;20197;-84
2023/05/08 11:45:11;;;;;;;6.85;6.25;;;20.30;75.30;;;;;;4841345;29;20208;-84
2023/05/08 11:47:42;;;;;;;6.95;6.35;;;20.20;75.40;;;;;;4827670;29;20181;-84
2023/05/08 11:50:10;;;;;;;6.82;6.22;;;20.20;74.50;;;;;;4827530;29;20178;-84
2023/05/08 11:52:36;;;;;;;7.25;6.53;;;20.20;75.80;;;;;;4827590;29;20649;-84
2023/05/08 11:55:07;;;;;;;7.72;6.90;;;20.30;75.70;;;;;;4827078;29;20202;-84
2023/05/08 11:57:33;;;;;;;7.65;6.43;;;20.30;76.50;;;;;;4827590;29;20228;-84
2023/05/08 12:00:09;;;;;;;7.28;6.60;;;20.40;77.00;;;;;;4827634;29;20646;-84
2023/05/08 12:02:44;;;;;;;6.65;6.05;;;20.30;75.20;;;;;;4826574;29;20285;-84
2023/05/08 12:05:10;;;;;;;11.63;6.72;;;20.30;76.80;;;;;;4827511;29;20262;-84
2023/05/08 12:07:46;;;;;;;16.38;7.45;;;20.40;76.60;;;;;;4827817;29;20196;-84
2023/05/08 12:10:13;;;;;;;14.25;6.70;;;20.40;74.80;;;;;;4826695;29;20653;-84
2023/05/08 12:12:40;;;;;;;8.98;6.72;;;20.40;75.40;;;;;;4843368;29;20199;-84
2023/05/08 12:15:13;;;;;;;7.03;6.43;;;20.60;76.00;;;;;;4826711;29;20579;-84
2023/05/08 12:17:39;;;;;;;10.10;7.18;;;20.60;74.70;;;;;;4827528;29;20231;-84
2023/05/08 12:20:17;;;;;;;7.53;6.88;;;20.60;74.00;;;;;;4826970;29;20186;-84
2023/05/08 12:22:51;;;;;;;8.68;7.10;;;20.60;74.60;;;;;;4827313;29;20211;-84
2023/05/08 12:25:17;;;;;;;8.27;7.57;;;20.60;76.40;;;;;;4826432;29;20205;-84
2023/05/08 12:27:44;;;;;;;9.02;6.55;;;20.80;75.60;;;;;;4843078;29;20210;-84
2023/05/08 12:30:12;;;;;;;14.27;6.68;;;20.80;75.40;;;;;;4843112;29;20526;-84
2023/05/08 12:32:40;;;;;;;13.93;6.90;;;20.90;74.50;;;;;;4827413;29;20185;-84
2023/05/08 12:35:10;;;;;;;7.65;6.45;;;20.90;73.30;;;;;;4826466;29;20297;-84
2023/05/08 12:37:36;;;;;;;11.25;6.70;;;21.00;74.10;;;;;;4826536;29;20213;-84
2023/05/08 12:40:03;;;;;;;18.10;6.72;;;20.70;72.50;;;;;;4826983;29;20186;-84
2023/05/08 12:42:48;;;;;;;24.00;6.78;;;20.70;74.60;;;;;;4826346;29;20182;-84
2023/05/08 12:45:23;;;;;;;7.57;5.57;;;20.80;74.00;;;;;;4826592;29;20262;-84
2023/05/08 12:47:50;;;;;;;6.70;6.20;;;20.80;72.20;;;;;;4826581;29;20594;-84
2023/05/08 12:50:22;;;;;;;11.55;5.80;;;20.90;73.20;;;;;;4826812;29;20189;-84
2023/05/08 12:52:48;;;;;;;9.45;5.97;;;21.00;74.00;;;;;;4827258;29;20186;-84
2023/05/08 12:55:26;;;;;;;6.90;5.47;;;21.00;72.80;;;;;;4826247;29;20209;-84
2023/05/08 12:58:07;;;;;;;8.02;6.25;;;21.20;73.70;;;;;;4826469;29;20208;-84
2023/05/08 13:00:40;;;;;;;6.32;5.80;;;21.30;73.10;;;;;;4826563;29;20183;-84
2023/05/08 13:03:10;;;;;;;6.28;5.72;;;21.40;74.10;;;;;;4827040;29;20288;-84
2023/05/08 13:05:40;;;;;;;6.85;6.00;;;21.50;72.80;;;;;;4843322;29;20661;-84
2023/05/08 13:08:10;;;;;;;8.77;5.72;;;21.50;71.60;;;;;;4826742;29;20268;-84
2023/05/08 13:10:52;;;;;;;9.07;6.15;;;21.50;73.10;;;;;;4826484;29;20188;-84
2023/05/08 13:13:25;;;;;;;7.75;5.75;;;21.60;72.90;;;;;;4844737;29;20651;-84
2023/05/08 13:15:53;;;;;;;10.20;5.85;;;21.60;72.70;;;;;;4846327;29;20174;-84
2023/05/08 13:18:22;;;;;;;10.25;5.60;;;21.50;72.80;;;;;;4829540;29;20192;-83
2023/05/08 13:20:48;;;;;;;10.88;6.10;;;21.40;72.30;;;;;;4830379;29;20668;-82
2023/05/08 13:23:13;;;;;;;6.55;5.93;;;21.30;71.20;;;;;;4829506;29;20181;-82
2023/05/08 13:25:40;;;;;;;8.02;5.10;;;21.10;72.20;;;;;;4829251;29;20209;-82
2023/05/08 13:28:07;;;;;;;6.22;5.63;;;21.10;71.80;;;;;;4829214;29;20185;-81
2023/05/08 13:30:34;;;;;;;5.75;5.20;;;21.10;72.10;;;;;;4829337;29;20186;-82
2023/05/08 13:33:27;;;;;;;6.30;5.70;;;21.10;72.10;;;;;;4829555;29;20650;-82
2023/05/08 13:35:53;;;;;;;5.70;5.15;;;21.30;73.00;;;;;;4829377;29;20186;-82
2023/05/08 13:38:18;;;;;;;7.72;5.72;;;21.50;71.70;;;;;;4829416;29;20186;-82
2023/05/08 13:40:45;;;;;;;27.40;6.38;;;21.50;71.10;;;;;;4829563;29;20697;-81
2023/05/08 13:43:10;;;;;;;16.70;5.60;;;21.50;70.70;;;;;;4829396;29;20256;-81
2023/05/08 13:45:36;;;;;;;11.40;5.50;;;21.40;72.00;;;;;;4829362;29;20209;-82
2023/05/08 13:48:01;;;;;;;6.28;5.60;;;21.30;71.20;;;;;;4829067;29;20182;-82
2023/05/08 13:50:31;;;;;;;5.95;5.45;;;21.10;72.90;;;;;;4829081;29;20192;-82
2023/05/08 13:52:57;;;;;;;6.40;5.78;;;21.00;74.20;;;;;;4829503;29;20269;-82
2023/05/08 13:55:22;;;;;;;11.95;6.00;;;21.00;75.30;;;;;;4829684;29;20292;-82
2023/05/08 13:57:48;;;;;;;5.57;4.93;;;20.90;76.00;;;;;;4829647;29;20205;-80
2023/05/08 14:00:14;;;;;;;6.25;5.47;;;21.00;73.30;;;;;;4830335;29;20193;-80
2023/05/08 14:02:40;;;;;;;5.50;5.10;;;20.90;72.80;;;;;;4830950;29;20234;-80
2023/05/08 14:05:07;;;;;;;8.13;5.05;;;20.90;73.60;;;;;;4831266;29;20209;-80
2023/05/08 14:07:33;;;;;;;6.35;5.72;;;21.10;74.10;;;;;;4830205;29;20273;-80
2023/05/08 14:09:59;;;;;;;8.80;5.68;;;20.90;72.60;;;;;;4830098;29;20182;-80
2023/05/08 14:12:25;;;;;;;15.27;5.68;;;20.90;73.10;;;;;;4830057;29;20188;-80
2023/05/08 14:14:50;;;;;;;12.52;5.63;;;20.90;72.20;;;;;;4829825;29;20197;-80
2023/05/08 14:17:16;;;;;;;9.10;5.72;;;21.00;72.00;;;;;;4830812;29;20300;-80
2023/05/08 14:19:41;;;;;;;6.40;5.80;;;20.90;72.10;;;;;;4830671;29;20257;-80
2023/05/08 14:22:07;;;;;;;6.72;5.93;;;20.90;72.80;;;;;;4830843;29;20204;-80
2023/05/08 14:24:32;;;;;;;7.68;5.50;;;20.90;74.00;;;;;;4829425;29;20274;-80
2023/05/08 14:26:58;;;;;;;11.15;5.72;;;20.90;74.10;;;;;;4830090;29;20202;-80
2023/05/08 14:29:24;;;;;;;7.15;5.20;;;20.90;72.90;;;;;;4829771;29;20240;-80
2023/05/08 14:31:50;;;;;;;10.23;5.47;;;20.90;73.00;;;;;;4829595;29;20181;-80
2023/05/08 14:34:15;;;;;;;10.88;5.88;;;21.00;73.20;;;;;;4845685;29;20221;-80
2023/05/08 14:36:41;;;;;;;6.20;5.30;;;20.90;73.20;;;;;;4828947;29;20197;-80
2023/05/08 14:39:06;;;;;;;7.38;6.18;;;21.00;74.50;;;;;;4828966;29;20218;-80
2023/05/08 14:41:32;;;;;;;6.03;5.53;;;21.00;73.70;;;;;;4829602;29;20185;-80
2023/05/08 14:43:58;;;;;;;6.25;5.40;;;20.90;73.80;;;;;;4829954;29;20209;-80
2023/05/08 14:46:24;;;;;;;5.55;5.05;;;20.90;74.50;;;;;;4829259;29;20265;-80
2023/05/08 14:48:50;;;;;;;6.28;5.65;;;20.90;75.50;;;;;;4829876;29;20676;-80